CheckWX is a tool to help pilots better visualize weather data.  It is not intended as a substitute for an official pre-flight weather briefing.

05:34:03 UTC

KAOO METAR
Altoona-Blair County Airport
Altoona, Pennsylvania, USA
Current

41 mins ago

KAOO 280453Z AUTO 26010KT 10SM FEW022 BKN050 OVC060 M04/M12 A2986 RMK AO2 PK WND 28034/0409 SNE19B24E44 SLP131 P0000 T10441117 400281056
Observed
Feb-28 @ 04:53 UTC
Wind
  • 260° at 10 KTS
Visibility
10 SM
Flight Rules
VFR
Cloud Levels
  • Few at 2,200' AGL
  • Broken at 5,000' AGL
  • Overcast at 6,000' AGL
Temperature
-4°C / 25°F
Dewpoint
-12°C / 10°F
Humidity
54%
Altimeter
29.86" Hg
Pressure
1011.22 hPa
Current Rain
0.01"
Previous

48 mins ago

KAOO 280446Z AUTO 27008G28KT 9SM SCT024 BKN048 OVC060 M04/M12 A2986 RMK AO2 PK WND 28034/0409 SNE19B24E44 P0000 T10441117
Observed
Feb-28 @ 04:46 UTC
Wind
  • 270° at 8 KTS
  • Gusting to 28 KTS
Visibility
9 SM
Flight Rules
VFR
Cloud Levels
  • Scattered at 2,400' AGL
  • Broken at 4,800' AGL
  • Overcast at 6,000' AGL
Temperature
-4°C / 25°F
Dewpoint
-12°C / 10°F
Humidity
54%
Altimeter
29.86" Hg
Pressure
1011.22 hPa
Current Rain
0.01"
Previous

1 hour ago

KAOO 280420Z AUTO 28021G28KT 9SM BKN020 OVC055 M05/M11 A2987 RMK AO2 PK WND 28034/0409 SNE19 P0000 T10501106
Observed
Feb-28 @ 04:20 UTC
Wind
  • 280° at 21 KTS
  • Gusting to 28 KTS
Visibility
9 SM
Flight Rules
MVFR
Cloud Levels
  • Broken at 2,000' AGL
  • Overcast at 5,500' AGL
Temperature
-5°C / 23°F
Dewpoint
-11°C / 12°F
Humidity
63%
Altimeter
29.87" Hg
Pressure
1011.52 hPa
Current Rain
0.01"